Time;durP1;ratioP1;P1;durP2;ratioP2;P2;SDS_P1;SDS_P2;PMS_P1;PMS_P2;Temp;Humidity;BMP_temperature;BMP_pressure;BME280_temperature;BME280_humidity;BME280_pressure;Samples;Min_cycle;Max_cycle;Signal;HPM_P1;HPM_P2
2021/07/06 00:02:16;;;;;;;223.90;207.52;;;;;;;19.57;100.00;100392.41;5012023;28;20028;-79
2021/07/06 00:04:44;;;;;;;187.88;173.32;;;;;;;19.58;100.00;100402.94;5011931;28;20488;-79
2021/07/06 00:07:11;;;;;;;208.55;192.88;;;;;;;19.66;100.00;100396.97;5013676;28;20056;-80
2021/07/06 00:09:38;;;;;;;260.05;241.15;;;;;;;19.51;100.00;100396.19;5011899;28;20112;-81
2021/07/06 00:12:05;;;;;;;197.63;182.75;;;;;;;19.56;100.00;100393.50;5011619;28;20049;-79
2021/07/06 00:14:32;;;;;;;284.30;262.88;;;;;;;19.64;100.00;100395.66;5012128;28;20053;-79
2021/07/06 00:17:00;;;;;;;266.08;247.65;;;;;;;19.64;100.00;100395.66;5012225;28;20069;-79
2021/07/06 00:19:27;;;;;;;234.82;217.73;;;;;;;19.62;100.00;100387.00;5011804;28;20486;-79
2021/07/06 00:21:54;;;;;;;196.45;181.43;;;;;;;19.63;100.00;100388.63;5012385;28;20049;-79
2021/07/06 00:24:21;;;;;;;202.02;187.18;;;;;;;19.76;100.00;100389.94;5011950;28;20129;-80
2021/07/06 00:26:47;;;;;;;235.07;218.45;;;;;;;19.82;100.00;100392.38;5012085;28;20042;-80
2021/07/06 00:29:14;;;;;;;185.90;171.55;;;;;;;19.78;100.00;100391.28;5012131;28;20045;-80
2021/07/06 00:31:41;;;;;;;219.70;203.50;;;;;;;19.43;100.00;100394.88;5011735;28;20474;-79
2021/07/06 00:34:09;;;;;;;176.95;162.98;;;;;;;19.52;100.00;100397.81;5001169;28;20046;-79
2021/07/06 00:36:36;;;;;;;234.63;217.70;;;;;;;19.36;100.00;100392.44;5002225;28;20057;-80
2021/07/06 00:39:03;;;;;;;168.30;154.30;;;;;;;19.35;100.00;100390.03;5006084;28;20430;-79
2021/07/06 00:41:30;;;;;;;172.68;158.85;;;;;;;19.35;100.00;100390.03;5007505;28;20490;-79
2021/07/06 00:43:57;;;;;;;198.95;183.75;;;;;;;19.32;100.00;100387.88;5010963;28;20446;-78
2021/07/06 00:46:24;;;;;;;175.02;160.88;;;;;;;19.34;100.00;100391.94;5015496;28;20046;-80
2021/07/06 00:48:51;;;;;;;185.73;171.50;;;;;;;19.11;100.00;100392.50;5015330;28;20399;-80
2021/07/06 00:51:19;;;;;;;185.05;170.63;;;;;;;19.14;100.00;100406.22;5005633;28;20141;-79
2021/07/06 00:53:46;;;;;;;155.50;142.75;;;;;;;19.10;100.00;100404.34;5004291;28;20050;-80
2021/07/06 00:56:13;;;;;;;157.70;144.85;;;;;;;19.18;100.00;100407.31;5010742;28;20111;-80
2021/07/06 00:58:40;;;;;;;181.15;167.10;;;;;;;19.21;100.00;100414.00;5015245;28;20050;-79
2021/07/06 01:01:07;;;;;;;177.40;163.57;;;;;;;18.90;100.00;100419.41;5015116;28;20045;-81
2021/07/06 01:03:34;;;;;;;183.45;168.95;;;;;;;18.98;100.00;100415.38;5014824;28;20065;-79
2021/07/06 01:06:01;;;;;;;174.75;160.75;;;;;;;19.01;100.00;100409.47;5008430;28;20057;-80
2021/07/06 01:08:29;;;;;;;192.25;177.25;;;;;;;19.12;100.00;100411.06;5012587;28;20108;-79
2021/07/06 01:10:56;;;;;;;184.60;169.88;;;;;;;18.77;100.00;100411.88;5013420;28;20049;-81
2021/07/06 01:13:23;;;;;;;175.88;161.45;;;;;;;19.01;100.00;100414.84;5015055;28;20132;-80
2021/07/06 01:15:50;;;;;;;148.13;135.63;;;;;;;19.16;100.00;100420.22;5014756;28;20061;-79
2021/07/06 01:18:19;;;;;;;175.35;161.32;;;;;;;19.09;100.00;100414.31;5015894;28;20045;-79
2021/07/06 01:20:48;;;;;;;220.98;204.85;;;;;;;19.20;100.00;100423.97;5015541;28;20410;-79
2021/07/06 01:23:20;;;;;;;210.88;195.73;;;;;;;19.29;100.00;100418.06;5014326;28;20061;-82
2021/07/06 01:25:48;;;;;;;210.48;194.98;;;;;;;19.14;100.00;100419.66;5007852;28;20386;-79
2021/07/06 01:28:15;;;;;;;181.00;166.55;;;;;;;19.13;100.00;100419.94;5014958;28;20127;-80
2021/07/06 01:30:41;;;;;;;258.98;240.93;;;;;;;19.11;100.00;100432.88;5006924;28;20061;-79
2021/07/06 01:33:09;;;;;;;252.70;235.05;;;;;;;19.25;100.00;100420.47;5008690;28;20058;-79
2021/07/06 01:35:36;;;;;;;256.65;238.63;;;;;;;19.25;100.00;100419.69;5014754;28;20050;-80
2021/07/06 01:38:04;;;;;;;266.02;247.63;;;;;;;19.25;100.00;100430.44;5014182;28;20053;-79
2021/07/06 01:40:34;;;;;;;233.18;217.00;;;;;;;19.27;100.00;100428.28;5014146;28;20479;-79
2021/07/06 01:43:01;;;;;;;280.00;260.23;;;;;;;19.14;100.00;100427.75;5003973;28;20050;-79
2021/07/06 01:45:28;;;;;;;232.27;215.48;;;;;;;19.27;100.00;100428.28;5014899;28;20054;-79
2021/07/06 01:47:57;;;;;;;214.18;198.68;;;;;;;19.28;100.00;100425.31;5009385;28;20060;-79
2021/07/06 01:50:25;;;;;;;206.90;191.88;;;;;;;19.21;100.00;100422.91;5014522;28;20368;-81
2021/07/06 01:52:53;;;;;;;226.70;210.30;;;;;;;19.30;100.00;100430.44;4997100;28;20057;-80
2021/07/06 01:55:23;;;;;;;170.18;156.20;;;;;;;19.31;100.00;100434.75;5011418;28;20057;-79
2021/07/06 01:57:53;;;;;;;208.57;192.95;;;;;;;19.31;100.00;100434.75;5015300;28;20054;-79
2021/07/06 02:02:55;;;;;;;192.73;178.18;;;;;;;19.40;100.00;100446.59;4920234;26;20086;-79
2021/07/06 02:05:31;;;;;;;170.00;156.50;;;;;;;19.40;100.00;100441.19;4974212;28;20070;-80
2021/07/06 02:07:59;;;;;;;218.55;202.55;;;;;;;19.41;100.00;100440.13;4973661;28;20046;-79
2021/07/06 02:10:28;;;;;;;207.55;192.23;;;;;;;19.41;100.00;100440.91;4973052;28;20050;-80
2021/07/06 02:12:57;;;;;;;239.65;220.93;;;;;;;19.32;100.00;100449.81;4973706;28;20062;-79
2021/07/06 02:15:25;;;;;;;191.57;177.13;;;;;;;19.50;100.00;100459.22;4973443;28;20061;-79
2021/07/06 02:17:52;;;;;;;215.25;199.15;;;;;;;19.46;100.00;100453.59;4972995;28;20377;-80
2021/07/06 02:20:20;;;;;;;212.25;196.93;;;;;;;19.54;100.00;100447.63;4974259;28;20407;-80
2021/07/06 02:22:48;;;;;;;180.77;167.07;;;;;;;19.61;100.00;100448.16;4973491;28;20065;-80
2021/07/06 02:25:18;;;;;;;195.77;181.02;;;;;;;19.31;100.00;100453.59;4972955;28;20112;-81
2021/07/06 02:27:47;;;;;;;185.10;171.00;;;;;;;19.43;100.00;100448.75;4972993;28;20055;-79
2021/07/06 02:30:17;;;;;;;193.52;179.30;;;;;;;19.54;100.00;100447.63;4972948;28;20089;-79
2021/07/06 02:32:44;;;;;;;159.85;147.20;;;;;;;19.60;100.00;100451.91;4973000;28;20046;-79
2021/07/06 02:35:12;;;;;;;155.52;143.27;;;;;;;19.55;100.00;100453.84;4972841;28;20047;-80
2021/07/06 02:37:39;;;;;;;158.85;145.77;;;;;;;19.41;100.00;100458.97;4973958;28;20055;-80
2021/07/06 02:40:09;;;;;;;171.98;158.88;;;;;;;19.45;100.00;100452.78;4973155;28;20061;-80
2021/07/06 02:42:36;;;;;;;182.25;168.02;;;;;;;19.27;100.00;100455.19;4972709;28;20101;-80
2021/07/06 02:45:04;;;;;;;179.55;165.32;;;;;;;19.36;100.00;100451.69;4972501;28;20483;-80
2021/07/06 02:47:32;;;;;;;143.05;131.32;;;;;;;19.33;100.00;100471.06;4968455;28;20494;-79
2021/07/06 02:49:59;;;;;;;173.93;160.18;;;;;;;19.36;100.00;100473.22;4972708;28;20058;-80
2021/07/06 02:52:26;;;;;;;185.40;171.10;;;;;;;19.37;100.00;100460.59;4974160;28;20444;-80
2021/07/06 02:54:53;;;;;;;184.43;170.23;;;;;;;19.41;100.00;100465.16;4971768;28;20109;-80
2021/07/06 03:00:02;;;;;;;186.20;171.77;;;;;;;19.37;100.00;100465.97;4968459;28;20046;-80
2021/07/06 03:02:28;;;;;;;195.38;180.88;;;;;;;19.41;100.00;100467.03;4972039;28;20062;-80
2021/07/06 03:04:57;;;;;;;157.85;145.10;;;;;;;19.25;100.00;100470.84;4972718;28;20059;-80
2021/07/06 03:07:23;;;;;;;159.40;146.45;;;;;;;19.33;100.00;100459.50;4973532;28;20050;-80
2021/07/06 03:09:50;;;;;;;177.23;163.20;;;;;;;19.19;100.00;100470.03;4972177;28;20058;-80
2021/07/06 03:12:17;;;;;;;164.52;151.55;;;;;;;19.28;100.00;100471.09;4972124;28;20047;-80
2021/07/06 03:14:44;;;;;;;184.13;170.02;;;;;;;19.00;100.00;100469.72;4971733;28;20050;-79
2021/07/06 03:17:10;;;;;;;163.13;149.75;;;;;;;19.18;100.00;100473.78;4972369;28;20042;-81
2021/07/06 03:19:37;;;;;;;150.00;137.55;;;;;;;19.16;100.00;100465.19;4971122;28;20086;-80
2021/07/06 03:22:05;;;;;;;148.80;136.00;;;;;;;19.25;100.00;100470.84;4971780;28;20126;-79
2021/07/06 03:24:32;;;;;;;176.82;162.77;;;;;;;19.16;100.00;100474.06;4970919;28;20054;-80
2021/07/06 03:26:59;;;;;;;149.45;137.45;;;;;;;19.37;100.00;100482.94;4970455;28;20059;-79
2021/07/06 03:29:26;;;;;;;152.30;139.75;;;;;;;19.45;100.00;100479.72;4970492;28;20059;-84
2021/07/06 03:31:52;;;;;;;197.73;182.00;;;;;;;19.39;100.00;100474.56;4970210;28;20055;-79
2021/07/06 03:34:20;;;;;;;180.52;166.18;;;;;;;19.53;100.00;100481.03;4970495;28;20058;-79
2021/07/06 03:36:47;;;;;;;176.15;162.23;;;;;;;19.54;100.00;100479.16;4971926;28;20047;-79
2021/07/06 03:39:15;;;;;;;195.82;180.73;;;;;;;19.59;100.00;100487.22;4970534;28;20471;-79
2021/07/06 03:41:42;;;;;;;157.43;143.95;;;;;;;19.64;100.00;100488.06;4970368;28;20058;-80
2021/07/06 03:44:08;;;;;;;170.95;157.05;;;;;;;19.54;100.00;100487.22;4970621;28;20117;-80
2021/07/06 03:46:35;;;;;;;171.00;156.93;;;;;;;19.54;100.00;100488.03;4970547;28;20468;-81
2021/07/06 03:49:03;;;;;;;149.85;137.35;;;;;;;19.46;100.00;100480.50;4969962;28;20484;-79
2021/07/06 03:51:31;;;;;;;160.90;147.50;;;;;;;19.57;100.00;100484.78;4971362;28;20051;-79
2021/07/06 03:53:58;;;;;;;162.95;149.70;;;;;;;19.62;100.00;100481.31;4970409;28;20066;-80
2021/07/06 03:56:26;;;;;;;156.65;143.52;;;;;;;19.57;100.00;100475.91;4970244;28;20043;-79
2021/07/06 03:58:53;;;;;;;160.80;147.30;;;;;;;19.61;100.00;100474.31;4970792;28;20113;-79
2021/07/06 04:01:20;;;;;;;155.85;143.02;;;;;;;19.48;100.00;100480.22;4972927;28;20055;-79
2021/07/06 04:03:47;;;;;;;158.68;145.50;;;;;;;19.42;100.00;100487.50;4973266;28;20058;-80
2021/07/06 04:06:13;;;;;;;158.55;145.55;;;;;;;19.53;100.00;100491.00;4971244;28;20043;-79
2021/07/06 04:08:40;;;;;;;152.77;139.80;;;;;;;19.53;100.00;100489.13;4970237;28;20478;-80
2021/07/06 04:11:07;;;;;;;139.85;128.35;;;;;;;19.62;100.00;100487.50;4971028;28;20436;-80
2021/07/06 04:13:35;;;;;;;146.93;134.95;;;;;;;19.76;100.00;100495.03;4974015;28;20047;-79
2021/07/06 04:16:02;;;;;;;138.05;126.50;;;;;;;19.83;100.00;100491.00;4974132;28;20479;-79
2021/07/06 04:18:29;;;;;;;146.30;134.10;;;;;;;19.85;100.00;100488.84;4974069;28;20083;-80
2021/07/06 04:20:56;;;;;;;145.20;132.75;;;;;;;19.81;100.00;100495.84;4975213;28;20055;-80
2021/07/06 04:23:23;;;;;;;143.68;131.80;;;;;;;19.98;100.00;100492.03;4974964;28;20051;-80
2021/07/06 04:25:49;;;;;;;152.55;140.25;;;;;;;20.05;100.00;100492.56;4975184;28;20062;-81
2021/07/06 04:28:16;;;;;;;153.95;141.77;;;;;;;19.93;100.00;100492.84;4974955;28;20150;-79
2021/07/06 04:30:44;;;;;;;146.20;134.27;;;;;;;19.87;100.00;100497.44;4975015;28;20043;-79
2021/07/06 04:33:11;;;;;;;147.52;135.32;;;;;;;20.03;100.00;100495.53;4975496;28;20101;-80
2021/07/06 04:35:38;;;;;;;153.00;140.20;;;;;;;20.01;100.00;100491.50;4975110;28;20468;-80
2021/07/06 04:38:05;;;;;;;165.85;152.40;;;;;;;20.07;100.00;100501.19;4974936;28;20479;-80
2021/07/06 04:40:31;;;;;;;162.18;149.20;;;;;;;20.13;100.00;100497.38;4975225;28;20415;-80
2021/07/06 04:43:00;;;;;;;171.80;157.95;;;;;;;20.21;100.00;100498.69;4973684;28;20521;-79
2021/07/06 04:45:27;;;;;;;179.38;165.55;;;;;;;20.34;100.00;100501.63;4975434;28;20065;-80
2021/07/06 04:47:55;;;;;;;185.48;171.23;;;;;;;20.36;100.00;100502.16;4974614;28;20059;-80
2021/07/06 04:50:22;;;;;;;156.32;143.80;;;;;;;20.57;100.00;100508.31;4974576;28;20053;-79
2021/07/06 04:52:49;;;;;;;153.13;140.68;;;;;;;20.61;100.00;100505.84;4974738;28;20058;-79
2021/07/06 04:55:19;;;;;;;157.38;144.38;;;;;;;20.95;100.00;100500.50;4976005;28;20062;-81
2021/07/06 04:57:46;;;;;;;142.88;131.40;;;;;;;20.96;100.00;100507.50;4973667;28;20062;-79
2021/07/06 05:00:14;;;;;;;144.23;132.52;;;;;;;21.14;100.00;100500.63;4974578;28;20451;-80
2021/07/06 05:02:42;;;;;;;145.48;133.35;;;;;;;21.44;100.00;100499.63;4974309;28;20054;-79
2021/07/06 05:05:12;;;;;;;124.80;114.45;;;;;;;21.41;100.00;100488.59;4974271;28;20057;-82
2021/07/06 05:07:39;;;;;;;144.88;132.75;;;;;;;21.62;100.00;100494.59;4975375;28;20073;-79
2021/07/06 05:10:08;;;;;;;131.32;120.57;;;;;;;21.47;100.00;100495.56;4974849;28;20055;-79
2021/07/06 05:12:35;;;;;;;122.20;111.80;;;;;;;21.60;100.00;100496.78;4974736;28;20055;-80
2021/07/06 05:15:02;;;;;;;140.32;129.57;;;;;;;21.76;100.00;100500.97;4974569;28;20507;-80
2021/07/06 05:17:29;;;;;;;136.05;125.00;;;;;;;21.52;100.00;100498.22;4967999;28;20043;-80
2021/07/06 05:19:55;;;;;;;152.65;140.85;;;;;;;21.52;100.00;100500.91;4972668;28;20067;-79
2021/07/06 05:22:24;;;;;;;157.07;144.48;;;;;;;21.57;100.00;100505.44;4960065;28;20055;-79
2021/07/06 05:24:51;;;;;;;165.57;152.18;;;;;;;21.31;100.00;100521.88;4972792;28;20062;-80
2021/07/06 05:27:18;;;;;;;178.52;164.55;;;;;;;21.29;100.00;100518.63;4978897;28;20042;-80
2021/07/06 05:29:45;;;;;;;173.25;159.05;;;;;;;21.41;100.00;100524.50;4974060;28;20050;-86
2021/07/06 05:32:12;;;;;;;148.38;136.57;;;;;;;21.42;100.00;100531.53;4973349;28;20503;-79
2021/07/06 05:34:39;;;;;;;135.75;124.40;;;;;;;21.31;100.00;100535.38;4971488;28;20380;-79
2021/07/06 05:37:06;;;;;;;132.07;120.82;;;;;;;21.42;100.00;100544.22;4976801;28;20530;-80
2021/07/06 05:39:34;;;;;;;133.70;122.55;;;;;;;21.41;100.00;100548.81;4974784;28;20047;-79
2021/07/06 05:42:04;;;;;;;159.73;147.20;;;;;;;21.65;100.00;100545.38;4974785;28;20063;-79
2021/07/06 05:44:31;;;;;;;142.18;130.18;;;;;;;21.69;100.00;100541.00;4975309;28;20054;-79
2021/07/06 05:46:57;;;;;;;164.93;152.38;;;;;;;21.65;100.00;100548.09;4974714;28;20400;-80
2021/07/06 05:49:24;;;;;;;158.20;146.55;;;;;;;21.64;100.00;100546.47;4975506;28;20050;-80
2021/07/06 05:51:51;;;;;;;145.35;134.00;;;;;;;21.56;100.00;100550.59;4976470;28;20431;-85
2021/07/06 05:54:18;;;;;;;142.55;131.80;;;;;;;21.48;100.00;100552.03;4977352;28;20054;-78
2021/07/06 05:56:46;;;;;;;129.80;119.57;;;;;;;21.42;100.00;100555.84;4973795;28;20055;-77
2021/07/06 05:59:13;;;;;;;132.98;121.90;;;;;;;21.47;100.00;100553.09;4973611;28;20053;-78
2021/07/06 06:01:40;;;;;;;130.32;119.88;;;;;;;21.55;100.00;100557.09;4973646;28;20051;-78
2021/07/06 06:04:06;;;;;;;130.38;119.88;;;;;;;21.91;100.00;100560.28;4975344;28;20051;-79
2021/07/06 06:06:33;;;;;;;117.88;108.07;;;;;;;22.08;100.00;100567.13;4976044;28;20423;-79
2021/07/06 06:09:00;;;;;;;112.53;103.30;;;;;;;22.24;100.00;100565.94;4973853;28;20051;-78
2021/07/06 06:11:27;;;;;;;94.47;86.88;;;;;;;22.06;100.00;100563.91;4970488;28;20143;-79
2021/07/06 06:13:55;;;;;;;96.07;88.25;;;;;;;22.12;100.00;100562.78;4974952;28;20046;-79
2021/07/06 06:16:22;;;;;;;109.38;100.70;;;;;;;22.47;100.00;100558.09;4974917;28;20066;-77
2021/07/06 06:18:54;;;;;;;110.03;101.57;;;;;;;22.90;100.00;100558.06;4974468;28;20074;-79
2021/07/06 06:21:21;;;;;;;;;;;;;;;23.27;100.00;100560.81;4975694;28;20403;-78
2021/07/06 06:23:47;;;;;;;102.72;94.82;;;;;;;22.65;100.00;100554.59;4973684;28;19922;-79
2021/07/06 06:26:14;;;;;;;116.07;107.13;;;;;;;22.76;100.00;100560.72;4973130;28;20050;-80
2021/07/06 06:28:41;;;;;;;101.72;93.65;;;;;;;22.69;100.00;100562.94;4971902;28;20051;-78
2021/07/06 06:31:10;;;;;;;103.20;95.45;;;;;;;22.39;100.00;100571.16;4972507;28;20117;-78
2021/07/06 06:33:37;;;;;;;116.47;107.47;;;;;;;22.43;100.00;100573.28;4971143;28;20057;-78
2021/07/06 06:36:04;;;;;;;106.22;97.57;;;;;;;22.16;100.00;100571.94;4972341;28;20055;-80
2021/07/06 06:38:30;;;;;;;118.20;108.68;;;;;;;22.37;100.00;100575.25;4970556;28;20067;-78
2021/07/06 06:40:57;;;;;;;126.55;116.13;;;;;;;22.17;100.00;100571.66;4970055;28;20125;-77
2021/07/06 06:43:24;;;;;;;132.63;121.82;;;;;;;22.36;100.00;100576.31;4971972;28;20051;-80
2021/07/06 06:45:51;;;;;;;133.48;123.13;;;;;;;22.66;100.00;100574.34;4974071;28;20463;-78
2021/07/06 06:48:19;;;;;;;119.40;110.13;;;;;;;22.49;100.00;100569.44;4972921;28;20190;-80
2021/07/06 06:50:45;;;;;;;121.78;112.15;;;;;;;22.59;100.00;100577.41;4974983;28;20582;-80
2021/07/06 06:53:12;;;;;;;126.18;116.38;;;;;;;22.51;100.00;100569.94;4974290;28;20058;-80
2021/07/06 06:55:39;;;;;;;126.45;116.40;;;;;;;22.51;100.00;100570.75;4974324;28;20055;-78
2021/07/06 06:58:06;;;;;;;121.88;111.68;;;;;;;22.40;100.00;100578.19;4974032;28;20061;-80
2021/07/06 07:00:33;;;;;;;128.70;118.63;;;;;;;22.52;100.00;100566.16;4974566;28;20504;-78
2021/07/06 07:02:59;;;;;;;136.45;125.10;;;;;;;22.59;100.00;100574.72;4972922;28;20498;-79
2021/07/06 07:05:28;;;;;;;122.35;112.38;;;;;;;22.45;100.00;100577.34;4973964;28;20488;-79
2021/07/06 07:07:57;;;;;;;120.32;110.65;;;;;;;22.43;100.00;100576.00;4974049;28;20070;-78
2021/07/06 07:10:24;;;;;;;140.68;129.80;;;;;;;22.46;100.00;100570.00;4973639;28;20082;-78
2021/07/06 07:12:50;;;;;;;130.15;119.57;;;;;;;22.42;100.00;100575.16;4974171;28;20487;-79
2021/07/06 07:15:17;;;;;;;133.52;122.57;;;;;;;22.44;100.00;100573.00;4973818;28;20113;-78
2021/07/06 07:17:44;;;;;;;134.35;123.50;;;;;;;22.45;100.00;100571.09;4973902;28;20047;-78
2021/07/06 07:20:12;;;;;;;142.65;131.05;;;;;;;22.53;100.00;100579.38;4973567;28;20117;-79
2021/07/06 07:22:40;;;;;;;144.63;132.45;;;;;;;22.60;100.00;100579.84;4973144;28;20142;-78
2021/07/06 07:25:08;;;;;;;133.90;123.03;;;;;;;22.48;100.00;100574.03;4973851;28;20061;-79
2021/07/06 07:27:35;;;;;;;132.48;121.40;;;;;;;22.68;100.00;100578.38;4973921;28;20050;-78
2021/07/06 07:30:01;;;;;;;131.32;120.25;;;;;;;22.65;100.00;100592.50;4973454;28;20395;-78
2021/07/06 07:32:28;;;;;;;120.80;111.13;;;;;;;22.42;100.00;100618.47;4973582;28;20116;-79
2021/07/06 07:34:55;;;;;;;128.60;118.10;;;;;;;22.60;100.00;100623.16;4973929;28;20120;-79
2021/07/06 07:37:22;;;;;;;148.10;135.43;;;;;;;22.48;100.00;100641.69;4974721;28;20050;-78
2021/07/06 07:39:50;;;;;;;170.93;156.88;;;;;;;22.37;100.00;100645.59;4973579;28;20113;-82
2021/07/06 07:42:19;;;;;;;206.98;189.35;;;;;;;22.37;100.00;100651.00;4973514;28;20055;-78
2021/07/06 07:44:47;;;;;;;174.60;159.52;;;;;;;22.19;100.00;100652.53;4973673;28;20074;-78
2021/07/06 07:47:14;;;;;;;200.15;183.52;;;;;;;21.82;100.00;100645.00;4973079;28;20455;-77
2021/07/06 07:49:40;;;;;;;232.68;213.98;;;;;;;21.66;100.00;100642.38;4973632;28;20481;-77
2021/07/06 07:52:08;;;;;;;230.00;211.45;;;;;;;21.67;100.00;100630.50;4974839;28;20046;-77
2021/07/06 07:54:35;;;;;;;216.20;197.75;;;;;;;21.83;100.00;100625.78;4973652;28;20047;-77
2021/07/06 07:57:06;;;;;;;205.35;188.38;;;;;;;21.98;100.00;100629.44;4973020;28;20062;-77
2021/07/06 07:59:33;;;;;;;202.98;185.85;;;;;;;21.94;100.00;100626.50;4973495;28;20058;-77
2021/07/06 08:02:00;;;;;;;198.23;182.02;;;;;;;21.83;100.00;100625.78;4973084;28;20578;-78
2021/07/06 08:04:27;;;;;;;190.93;174.85;;;;;;;21.90;100.00;100612.72;4973590;28;20046;-77
2021/07/06 08:06:53;;;;;;;202.48;185.32;;;;;;;22.73;100.00;100610.00;4974065;28;20066;-79
2021/07/06 08:09:20;;;;;;;230.60;211.50;;;;;;;22.79;100.00;100606.94;4972315;28;20475;-78
2021/07/06 08:11:47;;;;;;;206.65;189.30;;;;;;;23.10;100.00;100606.56;4972853;28;20451;-78
2021/07/06 08:14:15;;;;;;;150.25;138.27;;;;;;;23.06;100.00;100589.31;4969035;28;20054;-77
2021/07/06 08:16:42;;;;;;;187.85;172.85;;;;;;;23.43;100.00;100585.75;4973492;28;20051;-77
2021/07/06 08:19:09;;;;;;;152.20;139.93;;;;;;;23.68;100.00;100589.16;4973205;28;20110;-79
2021/07/06 08:21:36;;;;;;;189.23;173.60;;;;;;;24.10;100.00;100584.66;4973222;28;20054;-77
2021/07/06 08:24:03;;;;;;;160.20;148.05;;;;;;;24.47;100.00;100564.69;4973264;28;20075;-79
2021/07/06 08:26:31;;;;;;;146.73;135.40;;;;;;;24.70;100.00;100571.03;4972974;28;20054;-78
2021/07/06 08:28:58;;;;;;;151.73;140.35;;;;;;;24.92;100.00;100562.91;4973268;28;20050;-78
2021/07/06 08:31:26;;;;;;;112.45;104.90;;;;;;;24.92;100.00;100562.13;4972737;28;20053;-77
2021/07/06 08:33:53;;;;;;;163.27;151.43;;;;;;;25.26;100.00;100564.34;4970687;28;20471;-77
2021/07/06 08:36:19;;;;;;;132.02;123.00;;;;;;;25.63;100.00;100562.38;4972422;28;20484;-79
2021/07/06 08:38:46;;;;;;;157.50;146.45;;;;;;;25.64;100.00;100566.69;4971228;28;20050;-78
2021/07/06 08:41:14;;;;;;;156.82;146.23;;;;;;;25.97;100.00;100561.00;4971939;28;20050;-79
2021/07/06 08:43:40;;;;;;;151.10;140.95;;;;;;;26.31;100.00;100562.25;4972734;28;20046;-78
2021/07/06 08:46:07;;;;;;;158.18;147.55;;;;;;;26.19;100.00;100568.28;4972663;28;20050;-79
2021/07/06 08:48:36;;;;;;;125.15;116.20;;;;;;;26.25;100.00;100548.75;4969076;28;20139;-78
2021/07/06 08:51:04;;;;;;;131.57;122.15;;;;;;;26.54;100.00;100558.34;4971703;28;20055;-77
2021/07/06 08:53:31;;;;;;;150.75;140.25;;;;;;;26.55;100.00;100562.66;4970934;28;20444;-77
2021/07/06 08:55:58;;;;;;;131.90;122.68;;;;;;;26.62;100.00;100560.25;4972418;28;20050;-78
2021/07/06 08:58:26;;;;;;;101.75;94.35;;;;;;;26.60;100.00;100561.72;4973862;28;20097;-78
2021/07/06 09:00:53;;;;;;;118.45;109.97;;;;;;;26.86;100.00;100561.75;4971254;28;20484;-77
2021/07/06 09:03:20;;;;;;;99.13;92.10;;;;;;;26.78;100.00;100560.63;4974667;28;20432;-78
2021/07/06 09:05:48;;;;;;;131.45;122.25;;;;;;;26.91;100.00;100554.22;4976516;28;20043;-77
2021/07/06 09:08:18;;;;;;;79.30;73.30;;;;;;;27.07;100.00;100560.00;4961931;28;20058;-77
2021/07/06 09:10:45;;;;;;;83.05;76.88;;;;;;;26.98;100.00;100553.75;4976100;28;20051;-78
2021/07/06 09:13:19;;;;;;;77.50;71.95;;;;;;;27.29;100.00;100564.50;4975822;28;20070;-78
2021/07/06 09:15:52;;;;;;;73.03;67.75;;;;;;;26.90;100.00;100552.63;4974931;28;20136;-78
2021/07/06 09:18:20;;;;;;;41.53;38.42;;;;;;;27.13;100.00;100555.97;4974630;28;20051;-78
2021/07/06 09:21:01;;;;;;;48.38;44.78;;;;;;;27.11;100.00;100565.59;4976362;28;20404;-77
2021/07/06 09:23:31;;;;;;;39.15;35.65;;;;;;;27.30;100.00;100555.22;4974396;28;20054;-77
2021/07/06 09:26:15;;;;;;;43.97;40.20;;;;;;;27.40;100.00;100557.59;4976162;28;20170;-80
2021/07/06 09:28:43;;;;;;;50.60;46.70;;;;;;;27.88;100.00;100553.03;4975652;28;20489;-78
2021/07/06 09:31:25;;;;;;;50.60;46.90;;;;;;;27.69;100.00;100555.31;4975436;28;20047;-78
2021/07/06 09:34:00;;;;;;;;;;;;;;;27.30;100.00;100551.69;4976306;28;20046;-79
2021/07/06 09:36:33;;;;;;;45.80;41.65;;;;;;;27.25;100.00;100540.94;4977124;28;19933;-77
2021/07/06 09:39:05;;;;;;;64.82;59.92;;;;;;;27.93;100.00;100557.50;4975811;28;20060;-78
2021/07/06 09:41:32;;;;;;;59.65;55.03;;;;;;;27.71;100.00;100555.78;4975613;28;20133;-80
2021/07/06 09:44:15;;;;;;;59.38;55.03;;;;;;;27.85;100.00;100551.75;4975440;28;20055;-78
2021/07/06 09:46:50;;;;;;;44.47;40.67;;;;;;;27.71;100.00;100544.84;4965900;28;20061;-77
2021/07/06 09:49:18;;;;;;;41.33;38.22;;;;;;;27.32;100.00;100544.78;4968171;28;20455;-78
2021/07/06 09:51:47;;;;;;;43.00;39.38;;;;;;;27.30;100.00;100543.50;4969895;28;20050;-78
2021/07/06 09:54:28;;;;;;;41.35;38.08;;;;;;;27.76;100.00;100552.88;4975430;28;20061;-77
2021/07/06 09:57:04;;;;;;;45.70;42.00;;;;;;;27.44;100.00;100548.78;4975465;28;20050;-78
2021/07/06 09:59:31;;;;;;;36.75;33.80;;;;;;;28.16;100.00;100549.88;4971493;28;20059;-79
2021/07/06 10:01:59;;;;;;;42.33;39.17;;;;;;;28.60;100.00;100545.00;4974827;28;20054;-78
2021/07/06 10:04:27;;;;;;;39.72;36.65;;;;;;;28.04;100.00;100548.63;4975114;28;20046;-78
2021/07/06 10:06:57;;;;;;;39.67;36.78;;;;;;;28.61;100.00;100549.31;4976225;28;20054;-79
2021/07/06 10:09:25;;;;;;;35.70;33.15;;;;;;;28.15;100.00;100546.34;4973946;28;20047;-78
2021/07/06 10:11:52;;;;;;;34.75;32.25;;;;;;;28.46;100.00;100554.22;4975131;28;20050;-79
2021/07/06 10:14:20;;;;;;;38.92;36.13;;;;;;;28.33;100.00;100557.19;4974511;28;20051;-78
2021/07/06 10:16:47;;;;;;;35.88;33.25;;;;;;;28.56;100.00;100553.03;4974910;28;20043;-77
2021/07/06 10:19:14;;;;;;;38.72;36.13;;;;;;;28.18;100.00;100562.06;4974789;28;20055;-79
2021/07/06 10:21:41;;;;;;;35.22;32.53;;;;;;;28.66;100.00;100552.66;4976162;28;20109;-78
2021/07/06 10:24:09;;;;;;;33.97;31.42;;;;;;;28.79;100.00;100552.75;4975125;28;20440;-78
2021/07/06 10:26:40;;;;;;;39.17;36.53;;;;;;;28.54;100.00;100556.13;4972284;28;20451;-77
2021/07/06 10:29:07;;;;;;;43.03;40.17;;;;;;;27.65;100.00;100560.59;4971944;28;20038;-77
2021/07/06 10:31:42;;;;;;;32.80;30.35;;;;;;;28.08;100.00;100562.44;4972179;28;20061;-78
2021/07/06 10:34:21;;;;;;;33.83;31.05;;;;;;;28.93;100.00;100553.28;4972883;28;20181;-82
2021/07/06 10:36:48;;;;;;;34.88;32.28;;;;;;;28.58;100.00;100553.53;4970744;28;20102;-77
2021/07/06 10:39:18;;;;;;;37.17;34.55;;;;;;;28.85;100.00;100556.88;4973136;28;20055;-78
2021/07/06 10:41:58;;;;;;;35.40;32.65;;;;;;;28.13;100.00;100554.03;4972472;28;20484;-79
2021/07/06 10:44:35;;;;;;;36.22;33.63;;;;;;;28.79;100.00;100552.75;4973062;28;20116;-78
2021/07/06 10:47:02;;;;;;;31.77;29.45;;;;;;;28.97;100.00;100551.47;4972366;28;20452;-80
2021/07/06 10:49:35;;;;;;;33.42;30.92;;;;;;;29.72;100.00;100550.66;4970606;28;20113;-79
2021/07/06 10:52:07;;;;;;;31.40;29.20;;;;;;;28.89;100.00;100555.06;4973896;28;20058;-77
2021/07/06 10:54:38;;;;;;;32.70;30.27;;;;;;;28.62;100.00;100548.97;4972286;28;20050;-79
2021/07/06 10:57:25;;;;;;;36.00;33.70;;;;;;;29.22;100.00;100536.78;4972239;28;20082;-77
2021/07/06 10:59:58;;;;;;;31.13;28.88;;;;;;;28.47;100.00;100542.19;4971516;28;20046;-77